sensor_id;sensor_type;location;lat;lon;timestamp;temperature;humidity
16511;DHT22;8368;48.772;8.754;2023-04-15T00:01:22;0.80;99.90
16511;DHT22;8368;48.772;8.754;2023-04-15T00:03:50;0.80;99.90
16511;DHT22;8368;48.772;8.754;2023-04-15T00:06:17;0.80;99.90
16511;DHT22;8368;48.772;8.754;2023-04-15T00:08:46;0.70;99.90
16511;DHT22;8368;48.772;8.754;2023-04-15T00:11:12;0.70;99.90
16511;DHT22;8368;48.772;8.754;2023-04-15T00:13:38;0.70;99.90
16511;DHT22;8368;48.772;8.754;2023-04-15T00:16:05;0.60;99.90
16511;DHT22;8368;48.772;8.754;2023-04-15T00:18:31;0.60;99.90
16511;DHT22;8368;48.772;8.754;2023-04-15T00:20:57;0.50;99.90
16511;DHT22;8368;48.772;8.754;2023-04-15T00:23:23;0.50;99.90
16511;DHT22;8368;48.772;8.754;2023-04-15T00:25:49;0.50;99.90
16511;DHT22;8368;48.772;8.754;2023-04-15T00:28:15;0.40;99.90
16511;DHT22;8368;48.772;8.754;2023-04-15T00:30:41;0.50;99.90
16511;DHT22;8368;48.772;8.754;2023-04-15T00:33:07;0.50;99.90
16511;DHT22;8368;48.772;8.754;2023-04-15T00:35:33;0.50;99.90
16511;DHT22;8368;48.772;8.754;2023-04-15T00:37:59;0.50;99.90
16511;DHT22;8368;48.772;8.754;2023-04-15T00:40:24;0.50;99.90
16511;DHT22;8368;48.772;8.754;2023-04-15T00:42:51;0.50;99.90
16511;DHT22;8368;48.772;8.754;2023-04-15T00:45:17;0.50;99.90
16511;DHT22;8368;48.772;8.754;2023-04-15T00:47:43;0.40;99.90
16511;DHT22;8368;48.772;8.754;2023-04-15T00:50:10;0.40;99.90
16511;DHT22;8368;48.772;8.754;2023-04-15T00:52:37;0.40;99.90
16511;DHT22;8368;48.772;8.754;2023-04-15T00:55:04;0.40;99.90
16511;DHT22;8368;48.772;8.754;2023-04-15T00:57:30;0.40;99.90
16511;DHT22;8368;48.772;8.754;2023-04-15T00:59:56;0.40;99.90
16511;DHT22;8368;48.772;8.754;2023-04-15T01:02:24;0.40;99.90
16511;DHT22;8368;48.772;8.754;2023-04-15T01:04:49;0.40;99.90
16511;DHT22;8368;48.772;8.754;2023-04-15T01:07:15;0.30;99.90
16511;DHT22;8368;48.772;8.754;2023-04-15T01:09:41;0.30;99.90
16511;DHT22;8368;48.772;8.754;2023-04-15T01:12:09;0.30;99.90
16511;DHT22;8368;48.772;8.754;2023-04-15T01:14:36;0.30;99.90
16511;DHT22;8368;48.772;8.754;2023-04-15T01:17:01;0.30;99.90
16511;DHT22;8368;48.772;8.754;2023-04-15T01:19:27;0.30;99.90
16511;DHT22;8368;48.772;8.754;2023-04-15T01:21:53;0.20;99.90
16511;DHT22;8368;48.772;8.754;2023-04-15T01:24:19;0.30;99.90
16511;DHT22;8368;48.772;8.754;2023-04-15T01:26:45;0.30;99.90
16511;DHT22;8368;48.772;8.754;2023-04-15T01:29:11;0.30;99.90
16511;DHT22;8368;48.772;8.754;2023-04-15T01:31:37;0.30;99.90
16511;DHT22;8368;48.772;8.754;2023-04-15T01:34:03;0.30;99.90
16511;DHT22;8368;48.772;8.754;2023-04-15T01:36:29;0.30;99.90
16511;DHT22;8368;48.772;8.754;2023-04-15T01:38:55;0.30;99.90
16511;DHT22;8368;48.772;8.754;2023-04-15T01:41:25;0.30;99.90
16511;DHT22;8368;48.772;8.754;2023-04-15T01:43:51;0.20;99.90
16511;DHT22;8368;48.772;8.754;2023-04-15T01:46:17;0.20;99.90
16511;DHT22;8368;48.772;8.754;2023-04-15T01:48:42;0.20;99.90
16511;DHT22;8368;48.772;8.754;2023-04-15T01:51:08;0.30;99.90
16511;DHT22;8368;48.772;8.754;2023-04-15T01:53:33;0.40;99.90
16511;DHT22;8368;48.772;8.754;2023-04-15T01:55:59;0.40;99.90
16511;DHT22;8368;48.772;8.754;2023-04-15T01:58:24;0.40;99.90
16511;DHT22;8368;48.772;8.754;2023-04-15T02:00:50;0.40;99.90
16511;DHT22;8368;48.772;8.754;2023-04-15T02:03:15;0.40;99.90
16511;DHT22;8368;48.772;8.754;2023-04-15T02:05:41;0.40;99.90
16511;DHT22;8368;48.772;8.754;2023-04-15T02:08:07;0.40;99.90
16511;DHT22;8368;48.772;8.754;2023-04-15T02:10:33;0.30;99.90
16511;DHT22;8368;48.772;8.754;2023-04-15T02:12:59;0.30;99.90
16511;DHT22;8368;48.772;8.754;2023-04-15T02:15:25;0.20;99.90
16511;DHT22;8368;48.772;8.754;2023-04-15T02:17:50;0.20;99.90
16511;DHT22;8368;48.772;8.754;2023-04-15T02:20:18;0.30;99.90
16511;DHT22;8368;48.772;8.754;2023-04-15T02:22:44;0.30;99.90
16511;DHT22;8368;48.772;8.754;2023-04-15T02:25:09;0.20;99.90
16511;DHT22;8368;48.772;8.754;2023-04-15T02:27:36;0.20;99.90
16511;DHT22;8368;48.772;8.754;2023-04-15T02:30:02;0.20;99.90
16511;DHT22;8368;48.772;8.754;2023-04-15T02:32:27;0.20;99.90
16511;DHT22;8368;48.772;8.754;2023-04-15T02:34:53;0.30;99.90
16511;DHT22;8368;48.772;8.754;2023-04-15T02:37:19;0.20;99.90
16511;DHT22;8368;48.772;8.754;2023-04-15T02:39:45;0.20;99.90
16511;DHT22;8368;48.772;8.754;2023-04-15T02:42:10;0.10;99.90
16511;DHT22;8368;48.772;8.754;2023-04-15T02:44:37;0.20;99.90
16511;DHT22;8368;48.772;8.754;2023-04-15T02:47:03;0.20;99.90
16511;DHT22;8368;48.772;8.754;2023-04-15T02:49:30;0.10;99.90
16511;DHT22;8368;48.772;8.754;2023-04-15T02:51:56;0.10;99.90
16511;DHT22;8368;48.772;8.754;2023-04-15T02:54:22;0.10;99.90
16511;DHT22;8368;48.772;8.754;2023-04-15T02:56:48;0.10;99.90
16511;DHT22;8368;48.772;8.754;2023-04-15T02:59:14;0.10;99.90
16511;DHT22;8368;48.772;8.754;2023-04-15T03:01:40;0.10;99.90
16511;DHT22;8368;48.772;8.754;2023-04-15T03:04:05;0.00;99.90
16511;DHT22;8368;48.772;8.754;2023-04-15T03:06:33;0.00;99.90
16511;DHT22;8368;48.772;8.754;2023-04-15T03:08:59;0.10;99.90
16511;DHT22;8368;48.772;8.754;2023-04-15T03:11:25;0.00;99.90
16511;DHT22;8368;48.772;8.754;2023-04-15T03:13:51;0.00;99.90
16511;DHT22;8368;48.772;8.754;2023-04-15T03:16:17;-0.10;99.90
16511;DHT22;8368;48.772;8.754;2023-04-15T03:18:42;-0.10;99.90
16511;DHT22;8368;48.772;8.754;2023-04-15T03:21:08;0.00;99.90
16511;DHT22;8368;48.772;8.754;2023-04-15T03:23:33;0.00;99.90
16511;DHT22;8368;48.772;8.754;2023-04-15T03:26:03;0.00;99.90
16511;DHT22;8368;48.772;8.754;2023-04-15T03:28:29;-0.10;99.90
16511;DHT22;8368;48.772;8.754;2023-04-15T03:30:55;-0.10;99.90
16511;DHT22;8368;48.772;8.754;2023-04-15T03:33:21;-0.20;99.90
16511;DHT22;8368;48.772;8.754;2023-04-15T03:35:46;-0.20;99.90
16511;DHT22;8368;48.772;8.754;2023-04-15T03:38:12;-0.20;99.90
16511;DHT22;8368;48.772;8.754;2023-04-15T03:40:39;-0.20;99.90
16511;DHT22;8368;48.772;8.754;2023-04-15T03:43:05;-0.20;99.90
16511;DHT22;8368;48.772;8.754;2023-04-15T03:45:31;-0.20;99.90
16511;DHT22;8368;48.772;8.754;2023-04-15T03:47:56;-0.20;99.90
16511;DHT22;8368;48.772;8.754;2023-04-15T03:50:22;-0.20;99.90
16511;DHT22;8368;48.772;8.754;2023-04-15T03:52:48;-0.30;99.90
16511;DHT22;8368;48.772;8.754;2023-04-15T03:55:13;-0.30;99.90
16511;DHT22;8368;48.772;8.754;2023-04-15T03:57:39;-0.30;99.90
16511;DHT22;8368;48.772;8.754;2023-04-15T04:00:07;-0.30;99.90
16511;DHT22;8368;48.772;8.754;2023-04-15T04:02:34;-0.30;99.90
16511;DHT22;8368;48.772;8.754;2023-04-15T04:04:59;-0.20;99.90
16511;DHT22;8368;48.772;8.754;2023-04-15T04:07:25;-0.20;99.90
16511;DHT22;8368;48.772;8.754;2023-04-15T04:09:50;-0.20;99.90
16511;DHT22;8368;48.772;8.754;2023-04-15T04:12:16;-0.30;99.90
16511;DHT22;8368;48.772;8.754;2023-04-15T04:14:42;-0.30;99.90
16511;DHT22;8368;48.772;8.754;2023-04-15T04:17:07;-0.30;99.90
16511;DHT22;8368;48.772;8.754;2023-04-15T04:19:33;-0.30;99.90
16511;DHT22;8368;48.772;8.754;2023-04-15T04:21:58;-0.30;99.90
16511;DHT22;8368;48.772;8.754;2023-04-15T04:24:24;-0.30;99.90
16511;DHT22;8368;48.772;8.754;2023-04-15T04:26:50;-0.30;99.90
16511;DHT22;8368;48.772;8.754;2023-04-15T04:29:16;-0.30;99.90
16511;DHT22;8368;48.772;8.754;2023-04-15T04:31:41;-0.30;99.90
16511;DHT22;8368;48.772;8.754;2023-04-15T04:34:07;-0.20;99.90
16511;DHT22;8368;48.772;8.754;2023-04-15T04:36:32;-0.10;99.90
16511;DHT22;8368;48.772;8.754;2023-04-15T04:38:58;-0.10;99.90
16511;DHT22;8368;48.772;8.754;2023-04-15T04:41:23;-0.10;99.90
16511;DHT22;8368;48.772;8.754;2023-04-15T04:43:49;-0.10;99.90
16511;DHT22;8368;48.772;8.754;2023-04-15T04:46:14;-0.10;99.90
16511;DHT22;8368;48.772;8.754;2023-04-15T04:48:40;-0.10;99.90
16511;DHT22;8368;48.772;8.754;2023-04-15T04:51:06;-0.10;99.90
16511;DHT22;8368;48.772;8.754;2023-04-15T04:53:32;0.00;99.90
16511;DHT22;8368;48.772;8.754;2023-04-15T04:55:58;0.00;99.90
16511;DHT22;8368;48.772;8.754;2023-04-15T04:58:23;0.00;99.90
16511;DHT22;8368;48.772;8.754;2023-04-15T05:00:49;0.00;99.90
16511;DHT22;8368;48.772;8.754;2023-04-15T05:03:15;0.00;99.90
16511;DHT22;8368;48.772;8.754;2023-04-15T05:05:40;0.00;99.90
16511;DHT22;8368;48.772;8.754;2023-04-15T05:08:06;0.10;99.90
16511;DHT22;8368;48.772;8.754;2023-04-15T05:10:32;0.10;99.90
16511;DHT22;8368;48.772;8.754;2023-04-15T05:12:57;0.10;99.90
16511;DHT22;8368;48.772;8.754;2023-04-15T05:15:23;0.10;99.90
16511;DHT22;8368;48.772;8.754;2023-04-15T05:17:49;0.20;99.90
16511;DHT22;8368;48.772;8.754;2023-04-15T05:20:14;0.20;99.90
16511;DHT22;8368;48.772;8.754;2023-04-15T05:22:40;0.40;99.90
16511;DHT22;8368;48.772;8.754;2023-04-15T05:25:06;0.50;99.90
16511;DHT22;8368;48.772;8.754;2023-04-15T05:27:31;0.50;99.90
16511;DHT22;8368;48.772;8.754;2023-04-15T05:29:57;0.70;99.90
16511;DHT22;8368;48.772;8.754;2023-04-15T05:32:23;0.70;99.90
16511;DHT22;8368;48.772;8.754;2023-04-15T05:34:48;0.80;99.90
16511;DHT22;8368;48.772;8.754;2023-04-15T05:37:13;0.90;99.90
16511;DHT22;8368;48.772;8.754;2023-04-15T05:39:39;1.00;99.90
16511;DHT22;8368;48.772;8.754;2023-04-15T05:42:05;1.00;99.90
16511;DHT22;8368;48.772;8.754;2023-04-15T05:44:31;1.00;99.90
16511;DHT22;8368;48.772;8.754;2023-04-15T05:46:57;1.10;99.90
16511;DHT22;8368;48.772;8.754;2023-04-15T05:49:23;1.10;99.90
16511;DHT22;8368;48.772;8.754;2023-04-15T05:51:48;1.10;99.90
16511;DHT22;8368;48.772;8.754;2023-04-15T05:54:14;1.20;99.90
16511;DHT22;8368;48.772;8.754;2023-04-15T05:56:39;1.20;99.90
16511;DHT22;8368;48.772;8.754;2023-04-15T05:59:05;1.30;99.90
16511;DHT22;8368;48.772;8.754;2023-04-15T06:01:32;1.40;99.90
16511;DHT22;8368;48.772;8.754;2023-04-15T06:03:57;1.40;99.90
16511;DHT22;8368;48.772;8.754;2023-04-15T06:06:23;1.50;99.90
16511;DHT22;8368;48.772;8.754;2023-04-15T06:08:49;1.60;99.90
16511;DHT22;8368;48.772;8.754;2023-04-15T06:11:15;1.60;99.90
16511;DHT22;8368;48.772;8.754;2023-04-15T06:13:41;1.70;99.90
16511;DHT22;8368;48.772;8.754;2023-04-15T06:16:06;1.70;99.90
16511;DHT22;8368;48.772;8.754;2023-04-15T06:18:32;1.80;99.90
16511;DHT22;8368;48.772;8.754;2023-04-15T06:20:57;1.80;99.90
16511;DHT22;8368;48.772;8.754;2023-04-15T06:23:23;2.00;99.90
16511;DHT22;8368;48.772;8.754;2023-04-15T06:25:49;2.10;99.90
16511;DHT22;8368;48.772;8.754;2023-04-15T06:28:14;2.20;99.90
16511;DHT22;8368;48.772;8.754;2023-04-15T06:30:40;2.30;99.90
16511;DHT22;8368;48.772;8.754;2023-04-15T06:33:05;2.40;99.90
16511;DHT22;8368;48.772;8.754;2023-04-15T06:35:31;2.60;99.90
16511;DHT22;8368;48.772;8.754;2023-04-15T06:37:57;2.60;99.90
16511;DHT22;8368;48.772;8.754;2023-04-15T06:40:23;2.80;99.90
16511;DHT22;8368;48.772;8.754;2023-04-15T06:42:48;2.90;99.90
16511;DHT22;8368;48.772;8.754;2023-04-15T06:45:14;3.00;99.90
16511;DHT22;8368;48.772;8.754;2023-04-15T06:47:40;3.10;99.90
16511;DHT22;8368;48.772;8.754;2023-04-15T06:50:06;3.20;99.90
16511;DHT22;8368;48.772;8.754;2023-04-15T06:52:34;3.30;99.90
16511;DHT22;8368;48.772;8.754;2023-04-15T06:55:00;3.30;99.90
16511;DHT22;8368;48.772;8.754;2023-04-15T06:57:26;3.40;99.90
16511;DHT22;8368;48.772;8.754;2023-04-15T06:59:53;3.50;99.90
16511;DHT22;8368;48.772;8.754;2023-04-15T07:02:19;3.70;99.90
16511;DHT22;8368;48.772;8.754;2023-04-15T07:04:45;3.80;99.90
16511;DHT22;8368;48.772;8.754;2023-04-15T07:07:11;4.00;99.90
16511;DHT22;8368;48.772;8.754;2023-04-15T07:09:36;4.20;99.90
16511;DHT22;8368;48.772;8.754;2023-04-15T07:12:02;4.40;99.90
16511;DHT22;8368;48.772;8.754;2023-04-15T07:14:28;4.60;99.90
16511;DHT22;8368;48.772;8.754;2023-04-15T07:16:54;4.90;99.90
16511;DHT22;8368;48.772;8.754;2023-04-15T07:19:20;5.30;99.90
16511;DHT22;8368;48.772;8.754;2023-04-15T07:21:46;5.70;99.90
16511;DHT22;8368;48.772;8.754;2023-04-15T07:24:12;6.00;99.90
16511;DHT22;8368;48.772;8.754;2023-04-15T07:26:41;6.40;99.90
16511;DHT22;8368;48.772;8.754;2023-04-15T07:29:06;6.80;99.90
16511;DHT22;8368;48.772;8.754;2023-04-15T07:31:32;7.10;99.90
16511;DHT22;8368;48.772;8.754;2023-04-15T07:33:57;7.50;99.90
16511;DHT22;8368;48.772;8.754;2023-04-15T07:36:24;7.90;99.90
16511;DHT22;8368;48.772;8.754;2023-04-15T07:38:49;8.20;99.90
16511;DHT22;8368;48.772;8.754;2023-04-15T07:41:15;8.50;99.90
16511;DHT22;8368;48.772;8.754;2023-04-15T07:43:40;8.80;99.90
16511;DHT22;8368;48.772;8.754;2023-04-15T07:46:06;9.10;99.90
16511;DHT22;8368;48.772;8.754;2023-04-15T07:48:31;9.30;99.90
16511;DHT22;8368;48.772;8.754;2023-04-15T07:50:57;9.40;99.90
16511;DHT22;8368;48.772;8.754;2023-04-15T07:53:23;9.50;99.90
16511;DHT22;8368;48.772;8.754;2023-04-15T07:55:48;9.50;99.90
16511;DHT22;8368;48.772;8.754;2023-04-15T07:58:14;9.60;99.90
16511;DHT22;8368;48.772;8.754;2023-04-15T08:00:39;9.70;99.90
16511;DHT22;8368;48.772;8.754;2023-04-15T08:03:05;9.90;99.90
16511;DHT22;8368;48.772;8.754;2023-04-15T08:05:31;10.10;99.90
16511;DHT22;8368;48.772;8.754;2023-04-15T08:07:57;10.20;99.90
16511;DHT22;8368;48.772;8.754;2023-04-15T08:10:23;10.40;99.90
16511;DHT22;8368;48.772;8.754;2023-04-15T08:12:48;10.50;99.90
16511;DHT22;8368;48.772;8.754;2023-04-15T08:15:15;10.60;99.90
16511;DHT22;8368;48.772;8.754;2023-04-15T08:17:41;10.70;99.90
16511;DHT22;8368;48.772;8.754;2023-04-15T08:20:06;10.70;99.90
16511;DHT22;8368;48.772;8.754;2023-04-15T08:22:32;10.60;99.90
16511;DHT22;8368;48.772;8.754;2023-04-15T08:24:57;10.50;99.90
16511;DHT22;8368;48.772;8.754;2023-04-15T08:27:23;10.50;99.90
16511;DHT22;8368;48.772;8.754;2023-04-15T08:29:49;10.50;99.90
16511;DHT22;8368;48.772;8.754;2023-04-15T08:32:15;10.40;99.90
16511;DHT22;8368;48.772;8.754;2023-04-15T08:34:41;10.30;99.90
16511;DHT22;8368;48.772;8.754;2023-04-15T08:37:06;10.30;99.90
16511;DHT22;8368;48.772;8.754;2023-04-15T08:39:32;10.30;99.90
16511;DHT22;8368;48.772;8.754;2023-04-15T08:42:02;10.50;99.90
16511;DHT22;8368;48.772;8.754;2023-04-15T08:44:32;10.60;99.90
16511;DHT22;8368;48.772;8.754;2023-04-15T08:47:02;10.60;99.90
16511;DHT22;8368;48.772;8.754;2023-04-15T08:49:28;10.70;99.90
16511;DHT22;8368;48.772;8.754;2023-04-15T08:51:55;10.80;99.90
16511;DHT22;8368;48.772;8.754;2023-04-15T08:54:22;10.90;99.90
16511;DHT22;8368;48.772;8.754;2023-04-15T08:56:48;11.00;99.90
16511;DHT22;8368;48.772;8.754;2023-04-15T08:59:14;11.10;99.90
16511;DHT22;8368;48.772;8.754;2023-04-15T09:01:41;11.20;99.90
16511;DHT22;8368;48.772;8.754;2023-04-15T09:04:06;11.30;99.90
16511;DHT22;8368;48.772;8.754;2023-04-15T09:06:32;11.20;99.90
16511;DHT22;8368;48.772;8.754;2023-04-15T09:08:58;11.10;99.90
16511;DHT22;8368;48.772;8.754;2023-04-15T09:11:24;11.20;99.90
16511;DHT22;8368;48.772;8.754;2023-04-15T09:13:50;11.30;99.90
16511;DHT22;8368;48.772;8.754;2023-04-15T09:16:16;11.40;99.90
16511;DHT22;8368;48.772;8.754;2023-04-15T09:18:42;11.40;99.90
16511;DHT22;8368;48.772;8.754;2023-04-15T09:21:10;11.50;99.90
16511;DHT22;8368;48.772;8.754;2023-04-15T09:23:37;11.50;99.90
16511;DHT22;8368;48.772;8.754;2023-04-15T09:26:03;11.40;99.90
16511;DHT22;8368;48.772;8.754;2023-04-15T09:28:29;11.60;99.90
16511;DHT22;8368;48.772;8.754;2023-04-15T09:31:00;11.60;99.90
16511;DHT22;8368;48.772;8.754;2023-04-15T09:33:27;11.60;99.90
16511;DHT22;8368;48.772;8.754;2023-04-15T09:36:00;11.70;99.90
16511;DHT22;8368;48.772;8.754;2023-04-15T09:38:26;11.80;99.90
16511;DHT22;8368;48.772;8.754;2023-04-15T09:40:52;11.90;99.90
16511;DHT22;8368;48.772;8.754;2023-04-15T09:43:18;12.00;99.90
16511;DHT22;8368;48.772;8.754;2023-04-15T09:45:51;11.90;99.90
16511;DHT22;8368;48.772;8.754;2023-04-15T09:48:19;12.00;99.90
16511;DHT22;8368;48.772;8.754;2023-04-15T09:50:46;12.10;99.90
16511;DHT22;8368;48.772;8.754;2023-04-15T09:53:20;12.20;99.90
16511;DHT22;8368;48.772;8.754;2023-04-15T09:55:50;12.30;99.90
16511;DHT22;8368;48.772;8.754;2023-04-15T09:58:25;12.40;99.90
16511;DHT22;8368;48.772;8.754;2023-04-15T10:00:52;12.50;99.90
16511;DHT22;8368;48.772;8.754;2023-04-15T10:03:20;12.60;99.90
16511;DHT22;8368;48.772;8.754;2023-04-15T10:05:51;12.40;99.90
16511;DHT22;8368;48.772;8.754;2023-04-15T10:08:18;12.40;99.90
16511;DHT22;8368;48.772;8.754;2023-04-15T10:10:46;12.20;99.90
16511;DHT22;8368;48.772;8.754;2023-04-15T10:13:13;12.20;99.90
16511;DHT22;8368;48.772;8.754;2023-04-15T10:15:43;12.40;99.90
16511;DHT22;8368;48.772;8.754;2023-04-15T10:18:13;12.50;99.90
16511;DHT22;8368;48.772;8.754;2023-04-15T10:20:40;12.40;99.90
16511;DHT22;8368;48.772;8.754;2023-04-15T10:23:07;12.40;99.90
16511;DHT22;8368;48.772;8.754;2023-04-15T10:25:34;12.50;99.90
16511;DHT22;8368;48.772;8.754;2023-04-15T10:28:01;12.30;99.90
16511;DHT22;8368;48.772;8.754;2023-04-15T10:30:27;12.30;99.90
16511;DHT22;8368;48.772;8.754;2023-04-15T10:32:53;12.30;99.90
16511;DHT22;8368;48.772;8.754;2023-04-15T10:35:21;12.20;99.90
16511;DHT22;8368;48.772;8.754;2023-04-15T10:37:47;12.10;99.90
16511;DHT22;8368;48.772;8.754;2023-04-15T10:40:31;12.10;99.90
16511;DHT22;8368;48.772;8.754;2023-04-15T10:42:59;12.20;99.90
16511;DHT22;8368;48.772;8.754;2023-04-15T10:45:28;12.10;99.90
16511;DHT22;8368;48.772;8.754;2023-04-15T10:47:57;12.00;99.90
16511;DHT22;8368;48.772;8.754;2023-04-15T10:50:26;11.90;99.90
16511;DHT22;8368;48.772;8.754;2023-04-15T10:52:55;11.90;99.90
16511;DHT22;8368;48.772;8.754;2023-04-15T10:55:23;12.00;99.90
16511;DHT22;8368;48.772;8.754;2023-04-15T10:57:58;12.00;99.90
16511;DHT22;8368;48.772;8.754;2023-04-15T11:00:29;12.10;99.90
16511;DHT22;8368;48.772;8.754;2023-04-15T11:05:52;12.00;99.90
16511;DHT22;8368;48.772;8.754;2023-04-15T11:08:57;12.10;99.90
16511;DHT22;8368;48.772;8.754;2023-04-15T11:14:27;12.10;99.90
16511;DHT22;8368;48.772;8.754;2023-04-15T11:16:52;12.20;99.90
16511;DHT22;8368;48.772;8.754;2023-04-15T11:19:18;12.20;99.90
16511;DHT22;8368;48.772;8.754;2023-04-15T11:21:43;12.10;99.90
16511;DHT22;8368;48.772;8.754;2023-04-15T11:24:09;11.80;99.90
16511;DHT22;8368;48.772;8.754;2023-04-15T11:26:34;11.80;99.90
16511;DHT22;8368;48.772;8.754;2023-04-15T11:29:00;11.70;99.90
16511;DHT22;8368;48.772;8.754;2023-04-15T11:31:26;11.70;99.90
16511;DHT22;8368;48.772;8.754;2023-04-15T11:33:54;11.70;99.90
16511;DHT22;8368;48.772;8.754;2023-04-15T11:36:19;11.60;99.90
16511;DHT22;8368;48.772;8.754;2023-04-15T11:38:46;11.50;99.90
16511;DHT22;8368;48.772;8.754;2023-04-15T11:41:12;11.60;99.90
16511;DHT22;8368;48.772;8.754;2023-04-15T11:43:37;11.80;99.90
16511;DHT22;8368;48.772;8.754;2023-04-15T11:46:03;12.00;99.90
16511;DHT22;8368;48.772;8.754;2023-04-15T11:48:31;12.10;99.90
16511;DHT22;8368;48.772;8.754;2023-04-15T11:51:02;12.20;99.90
16511;DHT22;8368;48.772;8.754;2023-04-15T11:53:42;12.00;99.90
16511;DHT22;8368;48.772;8.754;2023-04-15T11:56:09;12.00;99.90
16511;DHT22;8368;48.772;8.754;2023-04-15T11:58:36;11.90;99.90
16511;DHT22;8368;48.772;8.754;2023-04-15T12:01:03;11.90;99.90
16511;DHT22;8368;48.772;8.754;2023-04-15T12:03:29;12.00;99.90
16511;DHT22;8368;48.772;8.754;2023-04-15T12:08:55;12.30;99.90
16511;DHT22;8368;48.772;8.754;2023-04-15T12:11:41;12.50;99.90
16511;DHT22;8368;48.772;8.754;2023-04-15T12:14:12;12.30;99.90
16511;DHT22;8368;48.772;8.754;2023-04-15T12:16:45;12.30;99.90
16511;DHT22;8368;48.772;8.754;2023-04-15T12:19:13;12.20;99.90
16511;DHT22;8368;48.772;8.754;2023-04-15T12:21:41;12.10;99.90
16511;DHT22;8368;48.772;8.754;2023-04-15T12:24:09;12.10;99.90
16511;DHT22;8368;48.772;8.754;2023-04-15T12:26:52;12.20;99.90
16511;DHT22;8368;48.772;8.754;2023-04-15T12:29:19;12.40;99.90
16511;DHT22;8368;48.772;8.754;2023-04-15T12:31:50;12.60;99.90
16511;DHT22;8368;48.772;8.754;2023-04-15T12:34:17;12.70;99.90
16511;DHT22;8368;48.772;8.754;2023-04-15T12:36:44;12.80;99.90
16511;DHT22;8368;48.772;8.754;2023-04-15T12:39:09;13.00;99.90
16511;DHT22;8368;48.772;8.754;2023-04-15T12:41:35;13.20;99.90
16511;DHT22;8368;48.772;8.754;2023-04-15T12:44:00;13.20;99.90
16511;DHT22;8368;48.772;8.754;2023-04-15T12:46:26;13.40;99.90
16511;DHT22;8368;48.772;8.754;2023-04-15T12:48:52;13.70;99.90
16511;DHT22;8368;48.772;8.754;2023-04-15T12:51:18;13.60;99.90
16511;DHT22;8368;48.772;8.754;2023-04-15T12:53:46;13.40;99.90
16511;DHT22;8368;48.772;8.754;2023-04-15T12:56:12;13.30;99.90
16511;DHT22;8368;48.772;8.754;2023-04-15T12:58:38;13.00;99.90
16511;DHT22;8368;48.772;8.754;2023-04-15T13:01:04;13.00;99.90
16511;DHT22;8368;48.772;8.754;2023-04-15T13:03:30;13.20;99.90
16511;DHT22;8368;48.772;8.754;2023-04-15T13:05:56;13.00;99.90
16511;DHT22;8368;48.772;8.754;2023-04-15T13:08:22;13.10;99.90
16511;DHT22;8368;48.772;8.754;2023-04-15T13:10:47;13.20;99.90
16511;DHT22;8368;48.772;8.754;2023-04-15T13:13:13;13.30;99.90
16511;DHT22;8368;48.772;8.754;2023-04-15T13:15:38;12.80;99.90
16511;DHT22;8368;48.772;8.754;2023-04-15T13:18:05;12.60;99.90
16511;DHT22;8368;48.772;8.754;2023-04-15T13:20:31;12.40;99.90
16511;DHT22;8368;48.772;8.754;2023-04-15T13:22:56;12.10;99.90
16511;DHT22;8368;48.772;8.754;2023-04-15T13:25:22;11.80;99.90
16511;DHT22;8368;48.772;8.754;2023-04-15T13:27:48;11.70;99.90
16511;DHT22;8368;48.772;8.754;2023-04-15T13:30:14;11.80;99.90
16511;DHT22;8368;48.772;8.754;2023-04-15T13:32:39;11.70;99.90
16511;DHT22;8368;48.772;8.754;2023-04-15T13:35:05;11.80;99.90
16511;DHT22;8368;48.772;8.754;2023-04-15T13:37:31;11.80;99.90
16511;DHT22;8368;48.772;8.754;2023-04-15T13:39:56;11.80;99.90
16511;DHT22;8368;48.772;8.754;2023-04-15T13:42:22;11.90;99.90
16511;DHT22;8368;48.772;8.754;2023-04-15T13:44:49;11.80;99.90
16511;DHT22;8368;48.772;8.754;2023-04-15T13:47:16;11.90;99.90
16511;DHT22;8368;48.772;8.754;2023-04-15T13:49:42;11.70;99.90
16511;DHT22;8368;48.772;8.754;2023-04-15T13:52:07;11.60;99.90
16511;DHT22;8368;48.772;8.754;2023-04-15T13:54:33;11.60;99.90
16511;DHT22;8368;48.772;8.754;2023-04-15T13:56:58;11.60;99.90
16511;DHT22;8368;48.772;8.754;2023-04-15T13:59:24;11.50;99.90
16511;DHT22;8368;48.772;8.754;2023-04-15T14:01:49;11.40;99.90
16511;DHT22;8368;48.772;8.754;2023-04-15T14:04:15;11.40;99.90
16511;DHT22;8368;48.772;8.754;2023-04-15T14:06:41;11.40;99.90
16511;DHT22;8368;48.772;8.754;2023-04-15T14:09:06;11.40;99.90
16511;DHT22;8368;48.772;8.754;2023-04-15T14:11:32;11.50;99.90
16511;DHT22;8368;48.772;8.754;2023-04-15T14:13:59;11.40;99.90
16511;DHT22;8368;48.772;8.754;2023-04-15T14:16:25;11.40;99.90
16511;DHT22;8368;48.772;8.754;2023-04-15T14:18:51;11.50;99.90
16511;DHT22;8368;48.772;8.754;2023-04-15T14:21:16;11.70;99.90
16511;DHT22;8368;48.772;8.754;2023-04-15T14:23:42;11.70;99.90
16511;DHT22;8368;48.772;8.754;2023-04-15T14:26:08;11.60;99.90
16511;DHT22;8368;48.772;8.754;2023-04-15T14:28:33;11.50;99.90
16511;DHT22;8368;48.772;8.754;2023-04-15T14:30:59;11.40;99.90
16511;DHT22;8368;48.772;8.754;2023-04-15T14:33:24;11.40;99.90
16511;DHT22;8368;48.772;8.754;2023-04-15T14:35:50;11.20;99.90
16511;DHT22;8368;48.772;8.754;2023-04-15T14:38:16;11.00;99.90
16511;DHT22;8368;48.772;8.754;2023-04-15T14:40:41;10.80;99.90
16511;DHT22;8368;48.772;8.754;2023-04-15T14:43:07;10.70;99.90
16511;DHT22;8368;48.772;8.754;2023-04-15T14:45:32;10.80;99.90
16511;DHT22;8368;48.772;8.754;2023-04-15T14:47:58;10.70;99.90
16511;DHT22;8368;48.772;8.754;2023-04-15T14:50:24;10.80;99.90
16511;DHT22;8368;48.772;8.754;2023-04-15T14:52:50;10.70;99.90
16511;DHT22;8368;48.772;8.754;2023-04-15T14:55:15;10.70;99.90
16511;DHT22;8368;48.772;8.754;2023-04-15T14:57:41;10.70;99.90
16511;DHT22;8368;48.772;8.754;2023-04-15T15:00:08;10.70;99.90
16511;DHT22;8368;48.772;8.754;2023-04-15T15:02:35;10.70;99.90
16511;DHT22;8368;48.772;8.754;2023-04-15T15:05:01;10.80;99.90
16511;DHT22;8368;48.772;8.754;2023-04-15T15:07:27;10.80;99.90
16511;DHT22;8368;48.772;8.754;2023-04-15T15:09:55;10.90;99.90
16511;DHT22;8368;48.772;8.754;2023-04-15T15:12:21;10.90;99.90
16511;DHT22;8368;48.772;8.754;2023-04-15T15:14:49;11.00;99.90
16511;DHT22;8368;48.772;8.754;2023-04-15T15:17:15;11.00;99.90
16511;DHT22;8368;48.772;8.754;2023-04-15T15:19:41;11.10;99.90
16511;DHT22;8368;48.772;8.754;2023-04-15T15:22:06;11.00;99.90
16511;DHT22;8368;48.772;8.754;2023-04-15T15:24:32;11.10;99.90
16511;DHT22;8368;48.772;8.754;2023-04-15T15:26:57;11.10;99.90
16511;DHT22;8368;48.772;8.754;2023-04-15T15:29:23;11.10;99.90
16511;DHT22;8368;48.772;8.754;2023-04-15T15:31:49;11.10;99.90
16511;DHT22;8368;48.772;8.754;2023-04-15T15:34:15;11.20;99.90
16511;DHT22;8368;48.772;8.754;2023-04-15T15:36:41;11.20;99.90
16511;DHT22;8368;48.772;8.754;2023-04-15T15:39:06;11.20;99.90
16511;DHT22;8368;48.772;8.754;2023-04-15T15:41:32;11.30;99.90
16511;DHT22;8368;48.772;8.754;2023-04-15T15:43:57;11.20;99.90
16511;DHT22;8368;48.772;8.754;2023-04-15T15:46:23;11.00;99.90
16511;DHT22;8368;48.772;8.754;2023-04-15T15:48:49;10.80;99.90
16511;DHT22;8368;48.772;8.754;2023-04-15T15:51:15;10.70;99.90
16511;DHT22;8368;48.772;8.754;2023-04-15T15:53:40;10.60;99.90
16511;DHT22;8368;48.772;8.754;2023-04-15T15:56:06;10.60;99.90